Time;durP1;ratioP1;P1;durP2;ratioP2;P2;SDS_P1;SDS_P2;PMS_P1;PMS_P2;Temp;Humidity;BMP_temperature;BMP_pressure;BME280_temperature;BME280_humidity;BME280_pressure;Samples;Min_cycle;Max_cycle;Signal;HPM_P1;HPM_P2
2022/08/28 00:01:00;;;;;;;8.88;3.02;;;;;;;18.80;100.00;99176.87;1723414;81;21089;-57
2022/08/28 00:03:27;;;;;;;12.68;4.22;;;;;;;18.77;100.00;99179.03;1710406;81;20998;-56
2022/08/28 00:05:54;;;;;;;15.58;4.42;;;;;;;18.75;100.00;99175.57;1718396;81;21571;-56
2022/08/28 00:08:20;;;;;;;10.63;3.77;;;;;;;18.72;100.00;99175.34;1723399;81;21553;-56
2022/08/28 00:10:47;;;;;;;8.25;2.70;;;;;;;18.72;100.00;99171.75;1717012;81;21114;-56
2022/08/28 00:13:17;;;;;;;3.65;2.85;;;;;;;18.72;100.00;99172.61;1720784;81;21063;-56
2022/08/28 00:15:46;;;;;;;10.88;3.67;;;;;;;18.77;100.00;99176.30;1717326;81;21124;-56
2022/08/28 00:18:12;;;;;;;10.43;2.95;;;;;;;18.80;100.00;99176.87;1719798;81;21898;-56
2022/08/28 00:20:39;;;;;;;12.60;3.00;;;;;;;18.82;100.00;99178.96;1722340;81;21090;-56
2022/08/28 00:23:05;;;;;;;5.15;3.37;;;;;;;18.84;100.00;99178.83;1717629;81;21383;-56
2022/08/28 00:25:32;;;;;;;8.90;3.05;;;;;;;18.81;100.00;99175.00;1716646;81;21537;-57
2022/08/28 00:28:02;;;;;;;14.10;3.83;;;;;;;18.81;100.00;99169.55;1676376;83;21058;-57
2022/08/28 00:30:47;;;;;;;11.00;3.70;;;;;;;18.83;100.00;99168.42;1711393;81;21794;-58
2022/08/28 00:33:26;;;;;;;10.93;3.90;;;;;;;18.88;100.00;99163.92;1719508;81;21158;-58
2022/08/28 00:35:53;;;;;;;8.85;3.87;;;;;;;18.93;100.00;99156.67;1709235;81;21058;-58
2022/08/28 00:38:21;;;;;;;10.90;3.62;;;;;;;18.97;100.00;99164.95;1717075;81;21371;-58
2022/08/28 00:40:49;;;;;;;6.45;3.65;;;;;;;18.98;100.00;99160.69;1714125;81;21051;-58
2022/08/28 00:43:39;;;;;;;4.83;3.00;;;;;;;18.99;100.00;99173.33;1710944;81;21144;-57
2022/08/28 00:46:10;;;;;;;7.85;2.95;;;;;;;18.98;100.00;99167.50;1715270;81;21515;-57
2022/08/28 00:48:37;;;;;;;10.60;3.65;;;;;;;18.97;100.00;99161.69;1713209;81;21062;-57
2022/08/28 00:53:49;;;;;;;9.20;3.02;;;;;;;19.00;100.00;99166.88;1655218;84;21051;-57
2022/08/28 00:56:16;;;;;;;12.18;3.98;;;;;;;19.02;100.00;99160.78;1642568;85;21160;-57
2022/08/28 00:58:43;;;;;;;10.48;4.80;;;;;;;19.04;100.00;99157.92;1721996;81;21331;-57
2022/08/28 01:01:10;;;;;;;13.03;4.00;;;;;;;19.04;100.00;99160.15;1720790;81;20951;-57
2022/08/28 01:03:36;;;;;;;10.45;2.72;;;;;;;19.04;100.00;99153.33;1717727;81;20970;-57
2022/08/28 01:06:03;;;;;;;9.80;3.40;;;;;;;19.05;100.00;99154.19;1719368;81;21196;-57
2022/08/28 01:08:30;;;;;;;9.53;2.87;;;;;;;19.00;100.00;99153.23;1715138;81;21030;-57
2022/08/28 01:10:56;;;;;;;6.53;2.83;;;;;;;18.95;100.00;99145.99;1712905;81;21117;-57
2022/08/28 01:13:23;;;;;;;8.73;3.12;;;;;;;18.94;100.00;99156.53;1717737;81;21032;-57
2022/08/28 01:15:50;;;;;;;9.65;2.67;;;;;;;18.94;100.00;99154.31;1723128;81;21377;-58
2022/08/28 01:18:18;;;;;;;11.63;3.70;;;;;;;18.87;100.00;99146.70;1712496;81;21313;-58
2022/08/28 01:21:19;;;;;;;9.50;4.15;;;;;;;18.85;100.00;99140.52;1714357;81;22112;-57
2022/08/28 01:24:06;;;;;;;6.80;3.33;;;;;;;18.87;100.00;99140.38;1711016;81;20921;-58
2022/08/28 01:26:33;;;;;;;13.15;5.08;;;;;;;18.89;100.00;99138.35;1720720;81;20892;-58
2022/08/28 01:28:59;;;;;;;10.95;3.17;;;;;;;18.82;100.00;99130.38;1718928;81;20939;-58
2022/08/28 01:31:27;;;;;;;6.25;4.22;;;;;;;18.79;100.00;99130.19;1686917;84;21398;-58
2022/08/28 01:35:19;;;;;;;6.80;3.62;;;;;;;18.77;100.00;99128.59;1789632;78;28117;-56
2022/08/28 01:37:45;;;;;;;11.78;3.67;;;;;;;18.72;100.00;99119.95;1768970;79;21064;-56
2022/08/28 01:40:16;;;;;;;7.60;3.25;;;;;;;18.70;100.00;99128.30;1776498;78;21574;-56
2022/08/28 01:42:43;;;;;;;11.90;3.92;;;;;;;18.69;100.00;99119.75;1767547;79;21081;-56
2022/08/28 01:45:14;;;;;;;14.30;2.27;;;;;;;18.71;100.00;99116.89;1773213;79;21496;-56
2022/08/28 01:47:42;;;;;;;7.95;2.92;;;;;;;18.73;100.00;99110.78;1775196;78;20985;-56
2022/08/28 01:50:11;;;;;;;14.28;4.45;;;;;;;18.76;100.00;99095.02;1766681;79;21563;-56
2022/08/28 01:52:37;;;;;;;23.62;4.92;;;;;;;18.80;100.00;99089.62;1741055;81;21750;-54
2022/08/28 01:55:05;;;;;;;14.93;3.80;;;;;;;18.86;100.00;99089.58;1712870;81;20974;-55
2022/08/28 01:57:31;;;;;;;11.60;4.08;;;;;;;18.89;100.00;99081.09;1707760;82;21154;-55
2022/08/28 01:59:58;;;;;;;11.45;3.10;;;;;;;18.92;100.00;99082.67;1698868;82;21094;-55
2022/08/28 02:02:25;;;;;;;19.30;3.60;;;;;;;18.95;100.00;99079.67;1696798;82;21147;-56
2022/08/28 02:04:52;;;;;;;15.43;3.47;;;;;;;18.97;100.00;99078.51;1695945;82;21862;-56
2022/08/28 02:07:18;;;;;;;11.83;2.58;;;;;;;19.01;100.00;99076.37;1700092;82;21361;-52
2022/08/28 02:09:45;;;;;;;8.73;2.35;;;;;;;19.03;100.00;99077.09;1700384;82;21018;-55
2022/08/28 02:12:11;;;;;;;13.45;2.75;;;;;;;19.05;100.00;99077.32;1699076;82;21101;-52
2022/08/28 02:14:37;;;;;;;12.15;3.62;;;;;;;19.10;100.00;99073.64;1697798;82;21605;-55
2022/08/28 02:17:04;;;;;;;12.85;3.22;;;;;;;19.13;100.00;99069.77;1703937;82;21107;-53
2022/08/28 02:19:31;;;;;;;16.10;2.98;;;;;;;19.18;100.00;99070.19;1703495;82;21395;-53
2022/08/28 02:21:58;;;;;;;16.30;2.83;;;;;;;19.21;100.00;99069.91;1696528;82;21093;-54
2022/08/28 02:24:25;;;;;;;15.35;2.80;;;;;;;19.26;100.00;99075.78;1702287;82;21544;-54
2022/08/28 02:26:51;;;;;;;16.60;3.55;;;;;;;19.28;100.00;99076.00;1699628;82;21130;-54
2022/08/28 02:29:18;;;;;;;11.00;2.90;;;;;;;19.33;100.00;99076.92;1697002;82;21476;-55
2022/08/28 02:31:44;;;;;;;14.75;3.52;;;;;;;19.35;100.00;99074.05;1700852;82;21050;-54
2022/08/28 02:34:10;;;;;;;11.03;3.30;;;;;;;19.37;100.00;99076.14;1696463;82;21503;-55
2022/08/28 02:36:40;;;;;;;8.98;2.40;;;;;;;19.37;100.00;99078.87;1689672;82;21177;-54
2022/08/28 02:39:07;;;;;;;8.15;3.40;;;;;;;19.37;100.00;99075.64;1680993;82;21062;-54
2022/08/28 02:41:33;;;;;;;9.53;2.83;;;;;;;19.36;100.00;99079.37;1686921;82;21124;-54
2022/08/28 02:44:00;;;;;;;12.33;2.83;;;;;;;19.35;100.00;99083.10;1690844;82;21057;-54
2022/08/28 02:46:26;;;;;;;13.03;2.62;;;;;;;19.33;100.00;99082.88;1669243;83;21540;-53
2022/08/28 02:48:53;;;;;;;12.47;2.77;;;;;;;19.33;100.00;99082.38;1690632;83;21356;-54
2022/08/28 02:51:19;;;;;;;10.00;3.27;;;;;;;19.35;100.00;99079.51;1693344;83;22499;-53
2022/08/28 02:53:45;;;;;;;12.33;3.20;;;;;;;19.37;100.00;99081.59;1694454;82;21136;-53
2022/08/28 02:56:12;;;;;;;9.50;2.87;;;;;;;19.39;100.00;99084.55;1706659;81;21496;-55
2022/08/28 02:58:38;;;;;;;14.05;3.50;;;;;;;19.42;100.00;99088.83;1681609;83;21121;-52
2022/08/28 03:01:08;;;;;;;13.48;3.55;;;;;;;19.42;100.00;99088.83;1710461;81;21506;-55
2022/08/28 03:03:34;;;;;;;11.38;3.75;;;;;;;19.43;100.00;99087.33;1722971;81;21584;-53
2022/08/28 03:06:02;;;;;;;12.05;3.60;;;;;;;19.44;100.00;99082.23;1690224;82;21149;-54
2022/08/28 03:08:29;;;;;;;9.05;3.10;;;;;;;19.44;100.00;99085.45;1715549;81;21125;-53
2022/08/28 03:10:55;;;;;;;6.58;1.92;;;;;;;19.42;100.00;99080.14;1714854;81;21622;-53
2022/08/28 03:13:21;;;;;;;14.13;2.60;;;;;;;19.41;100.00;99081.64;1709923;81;21099;-54
2022/08/28 03:15:48;;;;;;;8.30;2.30;;;;;;;19.40;100.00;99083.52;1694560;83;21084;-53
2022/08/28 03:18:14;;;;;;;12.28;2.85;;;;;;;19.41;100.00;99073.45;1694183;83;22080;-55
2022/08/28 03:20:42;;;;;;;5.58;1.90;;;;;;;19.42;100.00;99077.91;1696884;83;21388;-53
2022/08/28 03:23:27;;;;;;;7.92;2.77;;;;;;;19.44;100.00;99088.19;1692267;83;20946;-54
2022/08/28 03:26:04;;;;;;;9.93;2.10;;;;;;;19.45;100.00;99089.41;1693578;83;21014;-54
2022/08/28 03:28:34;;;;;;;9.35;2.60;;;;;;;19.48;100.00;99093.76;1707895;81;21054;-54
2022/08/28 03:31:01;;;;;;;14.98;3.47;;;;;;;19.49;100.00;99096.31;1683953;83;21160;-53
2022/08/28 03:33:28;;;;;;;6.83;2.02;;;;;;;19.51;100.00;99099.77;1719460;81;21089;-56
2022/08/28 03:35:54;;;;;;;11.40;2.42;;;;;;;19.53;100.00;99102.36;1703816;82;21048;-56
2022/08/28 03:38:21;;;;;;;13.22;2.60;;;;;;;19.52;100.00;99107.45;1710360;82;21161;-56
2022/08/28 03:40:48;;;;;;;7.05;2.20;;;;;;;19.51;100.00;99112.05;1744962;79;21049;-56
2022/08/28 03:43:21;;;;;;;16.90;3.77;;;;;;;19.51;100.00;99111.19;1750375;80;21073;-56
2022/08/28 03:46:02;;;;;;;7.37;2.02;;;;;;;19.50;100.00;99114.42;1748867;79;21100;-56
2022/08/28 03:48:31;;;;;;;7.33;2.08;;;;;;;19.50;100.00;99115.78;1756751;79;21022;-56
2022/08/28 03:50:59;;;;;;;7.03;2.12;;;;;;;19.51;100.00;99122.11;1759021;79;21039;-56
2022/08/28 03:53:27;;;;;;;9.58;1.85;;;;;;;19.52;100.00;99120.60;1746917;79;21130;-56
2022/08/28 03:55:55;;;;;;;13.43;2.98;;;;;;;19.54;100.00;99124.55;1762383;79;21129;-56
2022/08/28 03:58:22;;;;;;;10.30;1.95;;;;;;;19.56;100.00;99125.28;1750860;80;20969;-56
2022/08/28 04:00:49;;;;;;;12.23;2.27;;;;;;;19.55;100.00;99121.69;1739701;79;20991;-56
2022/08/28 04:03:17;;;;;;;9.23;1.77;;;;;;;19.56;100.00;99122.02;1752292;80;21361;-57
2022/08/28 04:05:44;;;;;;;15.65;2.95;;;;;;;19.57;100.00;99131.94;1751298;79;21319;-56
2022/08/28 04:08:14;;;;;;;13.32;2.30;;;;;;;19.58;100.00;99135.53;1751382;79;21218;-56
2022/08/28 04:10:42;;;;;;;13.80;3.75;;;;;;;19.59;100.00;99141.34;1748844;79;20974;-56
2022/08/28 04:13:09;;;;;;;16.07;3.62;;;;;;;19.57;100.00;99140.13;1758831;79;20983;-56
2022/08/28 04:15:37;;;;;;;10.25;3.30;;;;;;;19.57;100.00;99135.16;1748474;79;20864;-56
2022/08/28 04:18:04;;;;;;;10.00;3.30;;;;;;;19.57;100.00;99137.39;1757709;80;21445;-56
2022/08/28 04:20:30;;;;;;;7.72;2.75;;;;;;;19.58;100.00;99130.06;1757706;79;21093;-56
2022/08/28 04:22:57;;;;;;;6.03;2.00;;;;;;;19.58;100.00;99121.38;1760387;79;20896;-56
2022/08/28 04:25:23;;;;;;;10.15;2.70;;;;;;;19.59;100.00;99120.88;1751428;80;20947;-56
2022/08/28 04:27:50;;;;;;;12.37;2.00;;;;;;;19.59;100.00;99119.00;1754004;79;20892;-56
2022/08/28 04:30:17;;;;;;;9.55;2.00;;;;;;;19.59;100.00;99109.45;1756204;79;20915;-56
2022/08/28 04:32:44;;;;;;;6.65;2.15;;;;;;;19.60;100.00;99114.41;1758743;79;21115;-56
2022/08/28 04:35:11;;;;;;;9.38;2.85;;;;;;;19.60;100.00;99103.49;1745250;79;20891;-56
2022/08/28 04:37:38;;;;;;;9.83;2.70;;;;;;;19.62;100.00;99109.67;1742769;80;21378;-56
2022/08/28 04:40:10;;;;;;;9.98;2.95;;;;;;;19.63;100.00;99097.25;1752580;79;21663;-56
2022/08/28 04:42:37;;;;;;;9.80;3.02;;;;;;;19.65;100.00;99099.80;1748427;80;20970;-56
2022/08/28 04:45:05;;;;;;;17.00;4.12;;;;;;;19.65;100.00;99094.34;1752623;79;21125;-56
2022/08/28 04:47:36;;;;;;;9.18;2.95;;;;;;;19.67;100.00;99091.47;1744490;80;21074;-56
2022/08/28 04:50:04;;;;;;;8.53;2.83;;;;;;;19.67;100.00;99091.47;1755524;79;21070;-57
2022/08/28 04:52:31;;;;;;;6.53;1.67;;;;;;;19.69;100.00;99089.46;1757002;79;21049;-56
2022/08/28 04:54:59;;;;;;;11.60;3.90;;;;;;;19.71;100.00;99091.55;1712769;82;21050;-57
2022/08/28 04:57:25;;;;;;;7.92;2.30;;;;;;;19.72;100.00;99094.64;1745606;80;22439;-56
2022/08/28 04:59:52;;;;;;;6.22;2.47;;;;;;;19.69;100.00;99101.25;1754191;79;21031;-57
2022/08/28 05:02:18;;;;;;;10.25;1.67;;;;;;;19.67;100.00;99101.03;1751909;80;21434;-56
2022/08/28 05:04:44;;;;;;;13.58;2.58;;;;;;;19.64;100.00;99097.61;1750092;80;21042;-56
2022/08/28 05:07:11;;;;;;;13.20;2.85;;;;;;;19.65;100.00;99097.94;1741393;80;21365;-56
2022/08/28 05:09:37;;;;;;;7.67;2.00;;;;;;;19.69;100.00;99102.61;1743893;80;21585;-56
2022/08/28 05:12:04;;;;;;;10.20;3.25;;;;;;;19.74;100.00;99096.19;1741707;79;21043;-56
2022/08/28 05:14:32;;;;;;;10.13;2.20;;;;;;;19.79;100.00;99099.86;1745838;80;21053;-56
2022/08/28 05:16:59;;;;;;;14.18;3.10;;;;;;;19.83;100.00;99106.23;1748098;80;21113;-56
2022/08/28 05:19:26;;;;;;;9.18;2.20;;;;;;;19.87;100.00;99108.17;1752793;79;21385;-56
2022/08/28 05:21:53;;;;;;;17.90;2.70;;;;;;;19.92;100.00;99111.31;1750248;80;21098;-56
2022/08/28 05:24:20;;;;;;;17.60;3.00;;;;;;;19.95;100.00;99117.34;1743436;80;21384;-56
2022/08/28 05:26:46;;;;;;;18.70;2.37;;;;;;;19.98;100.00;99110.73;1749542;79;21058;-56
2022/08/28 05:29:13;;;;;;;12.18;2.83;;;;;;;20.03;100.00;99112.50;1756496;79;21039;-56
2022/08/28 05:31:40;;;;;;;9.13;2.83;;;;;;;20.08;100.00;99112.91;1746531;80;21550;-56
2022/08/28 05:34:07;;;;;;;12.33;2.45;;;;;;;20.13;100.00;99110.60;1748455;80;21178;-56
2022/08/28 05:36:35;;;;;;;18.32;2.60;;;;;;;20.19;100.00;99108.63;1743107;80;21175;-56
2022/08/28 05:39:04;;;;;;;13.70;3.20;;;;;;;20.25;100.00;99112.62;1746164;80;21085;-57
2022/08/28 05:41:31;;;;;;;16.17;3.58;;;;;;;20.28;100.00;99113.70;1749635;80;21065;-56
2022/08/28 05:44:00;;;;;;;13.38;3.45;;;;;;;20.30;100.00;99115.78;1735653;80;21041;-56
2022/08/28 05:46:29;;;;;;;22.07;2.90;;;;;;;20.31;100.00;99110.17;1747822;81;21124;-56
2022/08/28 05:48:56;;;;;;;9.40;2.65;;;;;;;20.35;100.00;99110.74;1743735;80;20998;-56
2022/08/28 05:51:24;;;;;;;9.68;3.05;;;;;;;20.36;100.00;99102.90;1747423;80;21095;-56
2022/08/28 05:53:51;;;;;;;11.50;2.70;;;;;;;20.38;100.00;99109.95;1747963;80;21054;-56
2022/08/28 05:56:25;;;;;;;12.40;3.33;;;;;;;20.40;100.00;99105.70;1744664;80;21160;-56
2022/08/28 05:58:52;;;;;;;12.47;3.02;;;;;;;20.44;100.00;99115.30;1748369;80;23241;-56
2022/08/28 06:01:27;;;;;;;14.25;2.85;;;;;;;20.47;100.00;99108.17;1745990;80;21063;-56
2022/08/28 06:04:07;;;;;;;13.20;3.00;;;;;;;20.52;100.00;99114.54;1748481;80;21513;-56
2022/08/28 06:06:35;;;;;;;9.95;2.00;;;;;;;20.57;100.00;99122.66;1746233;81;21102;-57
2022/08/28 06:09:18;;;;;;;12.90;3.12;;;;;;;20.62;100.00;99126.29;1751001;80;21121;-56
2022/08/28 06:11:44;;;;;;;14.65;2.85;;;;;;;20.69;100.00;99136.46;1748352;80;21877;-56
2022/08/28 06:14:12;;;;;;;15.38;3.30;;;;;;;20.78;100.00;99144.25;1747937;80;21105;-57
2022/08/28 06:16:43;;;;;;;17.42;3.15;;;;;;;20.85;100.00;99135.78;1744969;80;21089;-57
2022/08/28 06:19:10;;;;;;;11.95;2.30;;;;;;;20.94;100.00;99142.20;1747589;80;21002;-57
2022/08/28 06:21:37;;;;;;;18.30;2.50;;;;;;;21.02;100.00;99142.30;1747290;80;21059;-56
2022/08/28 06:24:04;;;;;;;12.50;2.22;;;;;;;21.09;100.00;99142.92;1752691;80;21839;-57
2022/08/28 06:26:31;;;;;;;13.72;2.77;;;;;;;21.15;100.00;99144.16;1725930;80;21039;-57
2022/08/28 06:29:03;;;;;;;16.87;2.75;;;;;;;21.22;100.00;99143.05;1753330;80;21065;-57
2022/08/28 06:31:29;;;;;;;14.90;2.62;;;;;;;21.28;100.00;99139.69;1752318;80;21033;-57
2022/08/28 06:33:57;;;;;;;15.43;2.87;;;;;;;21.33;100.00;99149.67;1745675;80;21050;-57
2022/08/28 06:36:26;;;;;;;20.30;2.90;;;;;;;21.37;100.00;99146.45;1752127;80;21107;-57
2022/08/28 06:38:53;;;;;;;13.18;1.80;;;;;;;21.40;100.00;99140.67;1752959;80;20999;-57
2022/08/28 06:41:20;;;;;;;16.77;2.60;;;;;;;21.44;100.00;99138.46;1739252;80;21050;-57
2022/08/28 06:43:47;;;;;;;17.37;3.98;;;;;;;21.45;100.00;99135.57;1744446;80;21055;-56
2022/08/28 06:46:13;;;;;;;17.23;2.22;;;;;;;21.49;100.00;99132.89;1749183;80;21509;-55
2022/08/28 06:48:41;;;;;;;14.47;2.12;;;;;;;21.52;100.00;99136.66;1744770;80;21123;-56
2022/08/28 06:51:09;;;;;;;20.62;2.87;;;;;;;21.56;100.00;99133.61;1746682;80;20934;-56
2022/08/28 06:53:37;;;;;;;18.45;1.87;;;;;;;21.58;100.00;99132.95;1742587;80;21464;-55
2022/08/28 06:56:17;;;;;;;12.23;2.60;;;;;;;21.61;100.00;99135.35;1739104;80;21739;-55
2022/08/28 06:58:46;;;;;;;13.68;2.35;;;;;;;21.64;100.00;99141.38;1748285;80;21572;-56
2022/08/28 07:01:21;;;;;;;9.60;2.17;;;;;;;21.67;100.00;99134.73;1741000;80;21386;-55
2022/08/28 07:03:47;;;;;;;18.85;3.22;;;;;;;21.71;100.00;99144.34;1747653;80;21327;-55
2022/08/28 07:06:14;;;;;;;12.58;2.25;;;;;;;21.73;100.00;99146.42;1745119;80;21089;-55
2022/08/28 07:08:42;;;;;;;22.82;3.92;;;;;;;21.75;100.00;99138.41;1745105;80;21034;-55
2022/08/28 07:11:18;;;;;;;17.25;3.02;;;;;;;21.78;100.00;99140.80;1749355;80;21037;-56
2022/08/28 07:13:45;;;;;;;22.55;3.60;;;;;;;21.82;100.00;99142.73;1748133;80;21250;-55
2022/08/28 07:16:14;;;;;;;19.05;2.67;;;;;;;21.86;100.00;99144.97;1746180;80;21529;-55
2022/08/28 07:18:43;;;;;;;27.15;2.37;;;;;;;21.90;100.00;99142.27;1746356;80;20904;-56
2022/08/28 07:21:09;;;;;;;13.85;2.62;;;;;;;21.96;100.00;99139.39;1749920;80;20955;-56
2022/08/28 07:23:36;;;;;;;29.05;4.65;;;;;;;22.02;100.00;99131.95;1742961;80;20959;-56
2022/08/28 07:26:09;;;;;;;20.00;2.55;;;;;;;22.07;100.00;99129.58;1751593;80;22125;-56
2022/08/28 07:28:35;;;;;;;20.43;3.65;;;;;;;22.13;100.00;99130.28;1745272;80;21019;-56
2022/08/28 07:31:05;;;;;;;27.05;4.03;;;;;;;22.17;100.00;99123.47;1748406;80;21362;-56
2022/08/28 07:33:32;;;;;;;22.75;2.55;;;;;;;22.22;100.00;99120.23;1743711;80;20999;-56
2022/08/28 07:35:59;;;;;;;28.38;4.70;;;;;;;22.26;100.00;99121.12;1746619;80;21102;-54
2022/08/28 07:38:25;;;;;;;28.00;3.58;;;;;;;22.32;100.00;99121.48;1741564;80;21133;-53
2022/08/28 07:40:53;;;;;;;26.57;3.80;;;;;;;22.38;100.00;99114.83;1743963;80;21968;-54
2022/08/28 07:46:06;;;;;;;29.25;3.92;;;;;;;22.55;100.00;99111.13;1746333;80;21086;-52
2022/08/28 07:48:34;;;;;;;21.25;3.02;;;;;;;22.65;100.00;99110.49;1745709;80;21038;-55
2022/08/28 07:51:04;;;;;;;16.50;2.95;;;;;;;22.77;100.00;99106.11;1740120;80;21101;-51
2022/08/28 07:53:31;;;;;;;20.37;3.70;;;;;;;22.89;100.00;99110.25;1751055;80;21076;-52
2022/08/28 07:55:57;;;;;;;24.55;3.95;;;;;;;23.00;100.00;99118.17;1742193;80;21046;-50
2022/08/28 07:58:24;;;;;;;16.23;2.60;;;;;;;23.08;100.00;99112.70;1739924;80;21479;-55
2022/08/28 08:00:52;;;;;;;24.45;3.62;;;;;;;23.19;100.00;99119.25;1741667;79;21046;-52
2022/08/28 08:03:19;;;;;;;23.35;3.00;;;;;;;23.30;100.00;99124.42;1743251;80;21135;-53
2022/08/28 08:05:56;;;;;;;26.30;4.03;;;;;;;23.41;100.00;99119.08;1739623;80;21061;-53
2022/08/28 08:08:23;;;;;;;29.00;3.33;;;;;;;23.51;100.00;99124.45;1741283;80;21100;-54
2022/08/28 08:11:07;;;;;;;27.67;4.03;;;;;;;23.61;100.00;99129.27;1747643;80;21074;-53
2022/08/28 08:13:34;;;;;;;;;;;;;;;23.70;100.00;99122.22;1748119;80;21067;-52
2022/08/28 08:16:07;;;;;;;26.40;4.00;;;;;;;23.79;100.00;99120.33;1743616;80;21102;-52
2022/08/28 08:18:34;;;;;;;21.25;2.80;;;;;;;23.87;100.00;99123.06;1748953;80;21670;-51
2022/08/28 08:21:03;;;;;;;21.57;3.25;;;;;;;23.94;100.00;99121.33;1745602;80;21429;-53
2022/08/28 08:23:30;;;;;;;27.35;3.67;;;;;;;23.99;100.00;99113.41;1722353;80;21574;-52
2022/08/28 08:25:59;;;;;;;20.75;3.05;;;;;;;24.07;100.00;99112.56;1741483;80;21066;-54
2022/08/28 08:28:26;;;;;;;15.43;2.33;;;;;;;24.16;100.00;99120.28;1747486;80;21074;-54
2022/08/28 08:31:17;;;;;;;25.72;3.02;;;;;;;24.23;100.00;99109.80;1747318;80;21046;-53
2022/08/28 08:33:46;;;;;;;20.75;2.42;;;;;;;24.30;100.00;99107.20;1751245;80;21090;-55
2022/08/28 08:36:14;;;;;;;18.10;2.42;;;;;;;24.39;100.00;99105.62;1742433;80;21085;-56
2022/08/28 08:38:41;;;;;;;30.60;4.03;;;;;;;24.48;100.00;99106.45;1731972;80;21079;-55
2022/08/28 08:41:50;;;;;;;22.10;3.10;;;;;;;24.56;100.00;99104.18;1742627;80;22367;-56
2022/08/28 08:44:36;;;;;;;19.25;3.60;;;;;;;24.66;100.00;99103.45;1750511;80;21509;-56
2022/08/28 08:47:14;;;;;;;28.62;3.17;;;;;;;24.80;100.00;99104.92;1737661;80;21025;-56
2022/08/28 08:49:55;;;;;;;21.42;3.37;;;;;;;24.94;100.00;99100.56;1742623;80;21379;-55
2022/08/28 08:52:36;;;;;;;21.68;3.47;;;;;;;25.06;100.00;99091.38;1741894;80;21014;-56
2022/08/28 08:55:16;;;;;;;30.68;3.50;;;;;;;25.13;100.00;99090.47;1745984;80;21558;-57
2022/08/28 08:57:44;;;;;;;15.35;2.83;;;;;;;25.19;100.00;99086.11;1753167;80;21090;-55
2022/08/28 09:00:11;;;;;;;12.33;1.70;;;;;;;25.28;100.00;99086.39;1731818;80;21113;-56
2022/08/28 09:02:43;;;;;;;17.95;2.55;;;;;;;25.37;100.00;99089.42;1742257;80;21659;-56
2022/08/28 09:05:17;;;;;;;12.80;1.95;;;;;;;25.49;100.00;99093.47;1749582;80;21466;-56
2022/08/28 09:07:59;;;;;;;11.30;1.52;;;;;;;25.57;100.00;99098.91;1737613;80;21659;-55
2022/08/28 09:10:40;;;;;;;20.75;3.02;;;;;;;25.62;100.00;99093.72;1710774;82;21681;-56
2022/08/28 09:13:34;;;;;;;16.40;1.95;;;;;;;25.67;100.00;99088.19;1723277;82;21093;-56
2022/08/28 09:16:01;;;;;;;15.30;1.85;;;;;;;25.70;100.00;99098.82;1741770;80;21105;-55
2022/08/28 09:18:29;;;;;;;15.70;1.80;;;;;;;25.69;100.00;99099.34;1755340;80;21049;-56
2022/08/28 09:20:57;;;;;;;13.35;1.65;;;;;;;25.64;100.00;99101.80;1744528;80;21750;-55
2022/08/28 09:23:26;;;;;;;23.35;1.77;;;;;;;25.61;100.00;99098.89;1744067;80;21056;-55
2022/08/28 09:26:00;;;;;;;11.08;1.50;;;;;;;25.65;100.00;99111.80;1732564;80;21054;-56
2022/08/28 09:28:33;;;;;;;9.63;2.35;;;;;;;25.68;100.00;99099.55;1743477;80;21093;-56
2022/08/28 09:31:15;;;;;;;11.05;1.77;;;;;;;25.74;100.00;99101.03;1719105;81;21045;-56
2022/08/28 09:33:48;;;;;;;14.78;1.00;;;;;;;25.86;100.00;99105.59;1738288;80;21269;-56
2022/08/28 09:36:32;;;;;;;11.45;1.52;;;;;;;25.97;100.00;99104.59;1751812;80;21094;-56
2022/08/28 09:39:17;;;;;;;4.33;0.90;;;;;;;26.08;100.00;99099.66;1740387;81;21486;-55
2022/08/28 09:45:23;;;;;;;7.50;1.10;;;;;;;26.25;100.00;99086.89;1685832;83;21097;-55
2022/08/28 09:47:54;;;;;;;9.00;0.98;;;;;;;26.39;100.00;99089.33;1740149;80;21099;-55
2022/08/28 09:50:30;;;;;;;10.85;1.10;;;;;;;26.46;100.00;99093.56;1751464;80;21042;-57
2022/08/28 09:53:16;;;;;;;8.65;1.25;;;;;;;26.51;100.00;99093.34;1749634;79;21090;-56
2022/08/28 09:56:12;;;;;;;12.25;1.32;;;;;;;26.57;100.00;99095.84;1750870;80;20943;-56
2022/08/28 09:58:58;;;;;;;5.35;0.90;;;;;;;26.63;100.00;99101.45;1753185;80;21115;-56
2022/08/28 10:01:47;;;;;;;8.68;1.20;;;;;;;26.71;100.00;99097.20;1751913;80;21147;-56
2022/08/28 10:04:55;;;;;;;6.10;0.98;;;;;;;26.77;100.00;99096.97;1747036;80;20953;-56
2022/08/28 10:07:56;;;;;;;7.85;0.98;;;;;;;26.79;100.00;99093.50;1745563;81;20927;-55
2022/08/28 10:10:42;;;;;;;6.65;1.00;;;;;;;26.83;100.00;99104.47;1749554;80;20923;-55
2022/08/28 10:13:30;;;;;;;6.37;0.90;;;;;;;26.88;100.00;99093.69;1738167;80;22169;-55
2022/08/28 10:16:15;;;;;;;7.85;1.00;;;;;;;26.95;100.00;99090.54;1746910;80;21897;-55
2022/08/28 10:18:53;;;;;;;6.72;1.07;;;;;;;27.05;100.00;99090.23;1745863;80;21074;-55
2022/08/28 10:21:34;;;;;;;7.65;0.90;;;;;;;27.14;100.00;99093.73;1739475;81;21149;-55
2022/08/28 10:24:34;;;;;;;6.62;0.90;;;;;;;27.19;100.00;99092.08;1747803;80;21054;-55
2022/08/28 10:27:22;;;;;;;11.35;1.80;;;;;;;27.25;100.00;99089.05;1748537;79;21057;-55
2022/08/28 10:30:12;;;;;;;7.72;0.80;;;;;;;27.30;100.00;99082.42;1704772;82;21099;-56
2022/08/28 10:33:17;;;;;;;3.52;0.70;;;;;;;27.32;100.00;99083.05;1746128;80;21061;-55
2022/08/28 10:36:23;;;;;;;6.42;0.80;;;;;;;27.35;100.00;99085.44;1750416;79;21374;-56
2022/08/28 10:39:07;;;;;;;6.75;0.68;;;;;;;27.39;100.00;99085.39;1756707;79;20947;-56
2022/08/28 10:41:47;;;;;;;7.08;1.05;;;;;;;27.36;100.00;99080.24;1758889;80;21041;-55
2022/08/28 10:44:22;;;;;;;4.28;0.85;;;;;;;27.31;100.00;99073.05;1748493;80;21231;-55
2022/08/28 10:46:51;;;;;;;6.70;1.27;;;;;;;27.30;100.00;99071.37;1757670;79;21053;-56
2022/08/28 10:49:31;;;;;;;9.15;1.15;;;;;;;27.32;100.00;99081.15;1760511;79;21121;-57
2022/08/28 10:52:21;;;;;;;8.53;1.40;;;;;;;27.30;100.00;99077.75;1763841;80;21065;-55
2022/08/28 10:54:56;;;;;;;7.60;1.10;;;;;;;27.27;100.00;99074.52;1762078;80;21105;-57
2022/08/28 10:57:34;;;;;;;5.90;0.95;;;;;;;27.27;100.00;99080.90;1735104;80;21251;-57
2022/08/28 11:00:10;;;;;;;6.25;1.02;;;;;;;27.30;100.00;99080.52;1760074;79;21042;-56
2022/08/28 11:02:43;;;;;;;7.87;1.47;;;;;;;27.31;100.00;99081.34;1762973;80;21352;-55
2022/08/28 11:05:10;;;;;;;4.00;1.25;;;;;;;27.32;100.00;99079.77;1760073;79;21029;-56
2022/08/28 11:07:42;;;;;;;4.50;1.00;;;;;;;27.34;100.00;99068.00;1760313;79;22262;-55
2022/08/28 11:10:36;;;;;;;7.72;1.25;;;;;;;27.36;100.00;99072.81;1752962;79;22475;-57
2022/08/28 11:13:05;;;;;;;12.90;1.07;;;;;;;27.39;100.00;99075.72;1757078;80;22367;-58
2022/08/28 11:15:37;;;;;;;6.47;1.20;;;;;;;27.41;100.00;99069.44;1756161;79;21544;-56
2022/08/28 11:18:36;;;;;;;7.25;1.10;;;;;;;27.45;100.00;99073.53;1753183;80;21081;-55
2022/08/28 11:21:24;;;;;;;5.20;0.80;;;;;;;27.48;100.00;99078.12;1750810;80;21037;-56
2022/08/28 11:24:07;;;;;;;10.75;1.00;;;;;;;27.47;100.00;99077.81;1757593;80;21633;-55
2022/08/28 11:27:11;;;;;;;6.97;1.98;;;;;;;27.44;100.00;99075.97;1749047;80;21034;-56
2022/08/28 11:30:02;;;;;;;8.83;1.40;;;;;;;27.46;100.00;99073.86;1758775;80;21046;-56
2022/08/28 11:32:52;;;;;;;5.55;0.95;;;;;;;27.45;100.00;99077.16;1720472;81;21037;-56
2022/08/28 11:35:39;;;;;;;6.25;0.90;;;;;;;27.47;100.00;99087.49;1715701;81;21093;-56
2022/08/28 11:38:06;;;;;;;4.83;1.00;;;;;;;27.51;100.00;99079.64;1694726;82;21124;-56
2022/08/28 11:40:49;;;;;;;6.90;1.10;;;;;;;27.57;100.00;99079.39;1750268;80;21426;-54
2022/08/28 11:43:22;;;;;;;5.37;1.15;;;;;;;27.57;100.00;99078.87;1748185;80;21203;-55
2022/08/28 11:46:03;;;;;;;3.92;1.17;;;;;;;27.59;100.00;99080.06;1734286;80;21066;-54
2022/08/28 11:48:41;;;;;;;9.88;1.42;;;;;;;27.60;100.00;99087.30;1742552;80;22481;-54
2022/08/28 11:51:18;;;;;;;5.92;1.30;;;;;;;27.58;100.00;99086.11;1751778;80;21113;-55